Main page
METAR-TAF:

METAR-TAF

Airports :

Luxembourg, Luxembourg

Luxembourg Findel Airport

latitude: 49-37N, longitude: 006-13E, elevation: 376 m

Current weather observation

The report was made 34 minutes ago, at 08:20 UTC
Wind 11 kt from the East/Southeast
Temperature 12°C
Humidity 44%
Pressure 1011 hPa
Visibility 10 km or more
no clouds below 1500 m and no cumulonimbus

METAR: ELLX 300820Z 12011KT CAVOK 12/M00 Q1011 NOSIG

Time: 10:54 (08:54 UTC)

Forecast

The report was made 3 hours and 54 minutes ago, at 05:00 UTC
Forecast valid from 30 at 06 UTC to 01 at 12 UTC
Wind 11 kt from the East
Visibility 10 km or more
no clouds below 1500 m and no cumulonimbus
Temporary
from 30 at 09 UTC to 30 at 20 UTC
Wind 15 kt from the East/Southeast with gusts up to 25 kt
Temporary
from 01 at 03 UTC to 01 at 12 UTC
Visibility: 4000 m
Scattered clouds at a height of 600 ft
Broken clouds at a height of 1000 ft
light rain

TAF: ELLX 300500Z 3006/0112 09011KT CAVOK TEMPO 3009/3020 12015G25KT TEMPO 0103/0112 4000 -RA SCT006 BKN010

Weather observations and forecasts of more than 4000 airports (METAR and TAF reports).

The available stations are represented by yellow and red dots on the map.

Hover mouse over dot to see the name of the station.

Then click to see weather observations and forecasts.

To change the map : click on the green buttons with a black cross to zoom in, on the green button with a dash to zoom out, or on the green arrows for adjacent maps.


METAR-TAF: